sensor_id;sensor_type;location;lat;lon;timestamp;P1;durP1;ratioP1;P2;durP2;ratioP2
27706;SDS011;36332;51.384;0.040;2023-12-04T00:02:09;20.52;;;8.30;;
27706;SDS011;36332;51.384;0.040;2023-12-04T00:04:37;27.20;;;7.75;;
27706;SDS011;36332;51.384;0.040;2023-12-04T00:07:05;19.80;;;8.52;;
27706;SDS011;36332;51.384;0.040;2023-12-04T00:09:33;19.90;;;8.15;;
27706;SDS011;36332;51.384;0.040;2023-12-04T00:12:01;21.85;;;8.23;;
27706;SDS011;36332;51.384;0.040;2023-12-04T00:14:29;20.63;;;7.63;;
27706;SDS011;36332;51.384;0.040;2023-12-04T00:16:57;21.25;;;7.88;;
27706;SDS011;36332;51.384;0.040;2023-12-04T00:19:24;20.58;;;6.43;;
27706;SDS011;36332;51.384;0.040;2023-12-04T00:21:53;19.08;;;7.75;;
27706;SDS011;36332;51.384;0.040;2023-12-04T00:24:22;19.92;;;8.15;;
27706;SDS011;36332;51.384;0.040;2023-12-04T00:26:50;21.00;;;8.02;;
27706;SDS011;36332;51.384;0.040;2023-12-04T00:29:17;17.38;;;7.32;;
27706;SDS011;36332;51.384;0.040;2023-12-04T00:31:45;26.75;;;8.82;;
27706;SDS011;36332;51.384;0.040;2023-12-04T00:34:13;20.58;;;8.55;;
27706;SDS011;36332;51.384;0.040;2023-12-04T00:36:40;14.38;;;6.68;;
27706;SDS011;36332;51.384;0.040;2023-12-04T00:39:08;15.43;;;6.97;;
27706;SDS011;36332;51.384;0.040;2023-12-04T00:41:36;17.98;;;7.95;;
27706;SDS011;36332;51.384;0.040;2023-12-04T00:44:06;24.30;;;6.90;;
27706;SDS011;36332;51.384;0.040;2023-12-04T00:46:33;34.33;;;6.93;;
27706;SDS011;36332;51.384;0.040;2023-12-04T00:49:01;22.33;;;6.68;;
27706;SDS011;36332;51.384;0.040;2023-12-04T00:51:36;38.85;;;9.00;;
27706;SDS011;36332;51.384;0.040;2023-12-04T00:54:05;17.50;;;7.18;;
27706;SDS011;36332;51.384;0.040;2023-12-04T00:56:33;17.63;;;6.45;;
27706;SDS011;36332;51.384;0.040;2023-12-04T00:59:01;22.58;;;8.68;;
27706;SDS011;36332;51.384;0.040;2023-12-04T01:01:30;22.27;;;7.65;;
27706;SDS011;36332;51.384;0.040;2023-12-04T01:03:58;14.43;;;6.45;;
27706;SDS011;36332;51.384;0.040;2023-12-04T01:06:26;15.57;;;6.00;;
27706;SDS011;36332;51.384;0.040;2023-12-04T01:08:54;21.35;;;7.25;;
27706;SDS011;36332;51.384;0.040;2023-12-04T01:11:22;20.02;;;6.10;;
27706;SDS011;36332;51.384;0.040;2023-12-04T01:13:52;19.27;;;7.15;;
27706;SDS011;36332;51.384;0.040;2023-12-04T01:16:19;14.05;;;5.63;;
27706;SDS011;36332;51.384;0.040;2023-12-04T01:18:47;19.83;;;6.30;;
27706;SDS011;36332;51.384;0.040;2023-12-04T01:21:15;28.48;;;7.13;;
27706;SDS011;36332;51.384;0.040;2023-12-04T01:23:43;26.52;;;9.27;;
27706;SDS011;36332;51.384;0.040;2023-12-04T01:26:11;16.98;;;6.57;;
27706;SDS011;36332;51.384;0.040;2023-12-04T01:28:39;23.52;;;7.15;;
27706;SDS011;36332;51.384;0.040;2023-12-04T01:31:06;26.45;;;6.68;;
27706;SDS011;36332;51.384;0.040;2023-12-04T01:33:34;15.27;;;5.95;;
27706;SDS011;36332;51.384;0.040;2023-12-04T01:36:02;16.67;;;6.22;;
27706;SDS011;36332;51.384;0.040;2023-12-04T01:38:30;13.32;;;5.60;;
27706;SDS011;36332;51.384;0.040;2023-12-04T01:40:58;10.98;;;5.53;;
27706;SDS011;36332;51.384;0.040;2023-12-04T01:43:26;14.40;;;5.55;;
27706;SDS011;36332;51.384;0.040;2023-12-04T01:45:56;14.05;;;6.07;;
27706;SDS011;36332;51.384;0.040;2023-12-04T01:48:24;21.60;;;6.03;;
27706;SDS011;36332;51.384;0.040;2023-12-04T01:50:53;12.15;;;5.32;;
27706;SDS011;36332;51.384;0.040;2023-12-04T01:53:24;18.33;;;6.10;;
27706;SDS011;36332;51.384;0.040;2023-12-04T01:55:51;18.30;;;6.45;;
27706;SDS011;36332;51.384;0.040;2023-12-04T01:58:19;15.05;;;5.28;;
27706;SDS011;36332;51.384;0.040;2023-12-04T02:00:48;17.60;;;5.25;;
27706;SDS011;36332;51.384;0.040;2023-12-04T02:03:15;15.35;;;5.72;;
27706;SDS011;36332;51.384;0.040;2023-12-04T02:05:47;10.57;;;4.75;;
27706;SDS011;36332;51.384;0.040;2023-12-04T02:08:14;17.60;;;5.93;;
27706;SDS011;36332;51.384;0.040;2023-12-04T02:10:42;9.93;;;4.80;;
27706;SDS011;36332;51.384;0.040;2023-12-04T02:13:10;10.88;;;5.38;;
27706;SDS011;36332;51.384;0.040;2023-12-04T02:15:38;20.95;;;5.20;;
27706;SDS011;36332;51.384;0.040;2023-12-04T02:18:06;13.25;;;4.50;;
27706;SDS011;36332;51.384;0.040;2023-12-04T02:20:34;13.02;;;4.80;;
27706;SDS011;36332;51.384;0.040;2023-12-04T02:23:02;10.55;;;4.65;;
27706;SDS011;36332;51.384;0.040;2023-12-04T02:25:30;13.20;;;4.15;;
27706;SDS011;36332;51.384;0.040;2023-12-04T02:28:07;16.27;;;4.05;;
27706;SDS011;36332;51.384;0.040;2023-12-04T02:30:38;17.38;;;4.20;;
27706;SDS011;36332;51.384;0.040;2023-12-04T02:33:10;12.35;;;3.80;;
27706;SDS011;36332;51.384;0.040;2023-12-04T02:35:40;10.45;;;3.47;;
27706;SDS011;36332;51.384;0.040;2023-12-04T02:38:09;15.38;;;5.05;;
27706;SDS011;36332;51.384;0.040;2023-12-04T02:40:38;13.50;;;3.63;;
27706;SDS011;36332;51.384;0.040;2023-12-04T02:43:06;15.25;;;3.80;;
27706;SDS011;36332;51.384;0.040;2023-12-04T02:45:34;8.05;;;3.10;;
27706;SDS011;36332;51.384;0.040;2023-12-04T02:48:02;10.70;;;3.33;;
27706;SDS011;36332;51.384;0.040;2023-12-04T02:50:30;9.02;;;3.58;;
27706;SDS011;36332;51.384;0.040;2023-12-04T02:52:58;10.07;;;3.35;;
27706;SDS011;36332;51.384;0.040;2023-12-04T02:55:26;8.00;;;3.28;;
27706;SDS011;36332;51.384;0.040;2023-12-04T02:57:54;11.10;;;3.80;;
27706;SDS011;36332;51.384;0.040;2023-12-04T03:00:22;7.18;;;2.80;;
27706;SDS011;36332;51.384;0.040;2023-12-04T03:02:51;4.78;;;3.00;;
27706;SDS011;36332;51.384;0.040;2023-12-04T03:05:19;8.07;;;3.00;;
27706;SDS011;36332;51.384;0.040;2023-12-04T03:07:47;10.32;;;3.22;;
27706;SDS011;36332;51.384;0.040;2023-12-04T03:10:14;11.45;;;3.10;;
27706;SDS011;36332;51.384;0.040;2023-12-04T03:12:42;11.00;;;3.40;;
27706;SDS011;36332;51.384;0.040;2023-12-04T03:15:10;20.60;;;3.42;;
27706;SDS011;36332;51.384;0.040;2023-12-04T03:17:39;12.88;;;3.33;;
27706;SDS011;36332;51.384;0.040;2023-12-04T03:20:07;10.57;;;3.15;;
27706;SDS011;36332;51.384;0.040;2023-12-04T03:22:36;4.60;;;2.30;;
27706;SDS011;36332;51.384;0.040;2023-12-04T03:25:04;10.57;;;3.63;;
27706;SDS011;36332;51.384;0.040;2023-12-04T03:27:32;7.10;;;2.85;;
27706;SDS011;36332;51.384;0.040;2023-12-04T03:30:00;8.23;;;2.80;;
27706;SDS011;36332;51.384;0.040;2023-12-04T03:32:30;8.98;;;2.70;;
27706;SDS011;36332;51.384;0.040;2023-12-04T03:34:58;9.98;;;3.05;;
27706;SDS011;36332;51.384;0.040;2023-12-04T03:37:26;17.05;;;3.05;;
27706;SDS011;36332;51.384;0.040;2023-12-04T03:39:55;8.57;;;3.00;;
27706;SDS011;36332;51.384;0.040;2023-12-04T03:42:22;5.40;;;2.67;;
27706;SDS011;36332;51.384;0.040;2023-12-04T03:44:50;8.27;;;2.80;;
27706;SDS011;36332;51.384;0.040;2023-12-04T03:47:17;12.80;;;3.45;;
27706;SDS011;36332;51.384;0.040;2023-12-04T03:49:45;10.98;;;4.18;;
27706;SDS011;36332;51.384;0.040;2023-12-04T03:52:13;10.10;;;3.20;;
27706;SDS011;36332;51.384;0.040;2023-12-04T03:54:40;8.25;;;3.25;;
27706;SDS011;36332;51.384;0.040;2023-12-04T03:57:11;6.43;;;2.90;;
27706;SDS011;36332;51.384;0.040;2023-12-04T03:59:39;7.80;;;3.08;;
27706;SDS011;36332;51.384;0.040;2023-12-04T04:02:06;8.38;;;3.00;;
27706;SDS011;36332;51.384;0.040;2023-12-04T04:04:34;5.38;;;3.05;;
27706;SDS011;36332;51.384;0.040;2023-12-04T04:07:02;7.22;;;3.10;;
27706;SDS011;36332;51.384;0.040;2023-12-04T04:09:31;11.63;;;3.20;;
27706;SDS011;36332;51.384;0.040;2023-12-04T04:11:59;6.28;;;2.80;;
27706;SDS011;36332;51.384;0.040;2023-12-04T04:14:26;11.18;;;3.65;;
27706;SDS011;36332;51.384;0.040;2023-12-04T04:16:54;16.08;;;3.20;;
27706;SDS011;36332;51.384;0.040;2023-12-04T04:19:22;11.23;;;3.63;;
27706;SDS011;36332;51.384;0.040;2023-12-04T04:21:49;12.95;;;3.92;;
27706;SDS011;36332;51.384;0.040;2023-12-04T04:24:17;10.60;;;3.80;;
27706;SDS011;36332;51.384;0.040;2023-12-04T04:26:45;9.10;;;3.83;;
27706;SDS011;36332;51.384;0.040;2023-12-04T04:29:13;16.02;;;3.55;;
27706;SDS011;36332;51.384;0.040;2023-12-04T04:31:40;13.05;;;3.58;;
27706;SDS011;36332;51.384;0.040;2023-12-04T04:34:08;10.57;;;3.78;;
27706;SDS011;36332;51.384;0.040;2023-12-04T04:36:36;11.13;;;4.10;;
27706;SDS011;36332;51.384;0.040;2023-12-04T04:39:04;8.57;;;3.83;;
27706;SDS011;36332;51.384;0.040;2023-12-04T04:41:33;13.93;;;3.67;;
27706;SDS011;36332;51.384;0.040;2023-12-04T04:44:01;12.15;;;3.88;;
27706;SDS011;36332;51.384;0.040;2023-12-04T04:46:29;9.43;;;3.47;;
27706;SDS011;36332;51.384;0.040;2023-12-04T04:48:57;8.98;;;3.90;;
27706;SDS011;36332;51.384;0.040;2023-12-04T04:51:25;11.65;;;4.18;;
27706;SDS011;36332;51.384;0.040;2023-12-04T04:53:52;11.27;;;3.95;;
27706;SDS011;36332;51.384;0.040;2023-12-04T04:56:20;10.50;;;3.45;;
27706;SDS011;36332;51.384;0.040;2023-12-04T04:58:49;11.77;;;3.60;;
27706;SDS011;36332;51.384;0.040;2023-12-04T05:01:19;10.00;;;3.90;;
27706;SDS011;36332;51.384;0.040;2023-12-04T05:03:47;10.80;;;3.17;;
27706;SDS011;36332;51.384;0.040;2023-12-04T05:06:15;6.10;;;3.42;;
27706;SDS011;36332;51.384;0.040;2023-12-04T05:08:43;13.57;;;3.63;;
27706;SDS011;36332;51.384;0.040;2023-12-04T05:11:10;10.48;;;3.08;;
27706;SDS011;36332;51.384;0.040;2023-12-04T05:13:42;15.82;;;5.15;;
27706;SDS011;36332;51.384;0.040;2023-12-04T05:16:10;8.23;;;3.55;;
27706;SDS011;36332;51.384;0.040;2023-12-04T05:18:38;15.30;;;3.90;;
27706;SDS011;36332;51.384;0.040;2023-12-04T05:21:08;7.55;;;3.70;;
27706;SDS011;36332;51.384;0.040;2023-12-04T05:23:37;8.43;;;3.50;;
27706;SDS011;36332;51.384;0.040;2023-12-04T05:26:06;12.40;;;3.53;;
27706;SDS011;36332;51.384;0.040;2023-12-04T05:28:34;9.27;;;3.33;;
27706;SDS011;36332;51.384;0.040;2023-12-04T05:31:02;14.35;;;3.28;;
27706;SDS011;36332;51.384;0.040;2023-12-04T05:33:30;12.25;;;3.05;;
27706;SDS011;36332;51.384;0.040;2023-12-04T05:35:59;8.43;;;3.03;;
27706;SDS011;36332;51.384;0.040;2023-12-04T05:38:27;9.40;;;3.67;;
27706;SDS011;36332;51.384;0.040;2023-12-04T05:40:55;7.40;;;3.90;;
27706;SDS011;36332;51.384;0.040;2023-12-04T05:43:23;9.43;;;3.03;;
27706;SDS011;36332;51.384;0.040;2023-12-04T05:45:50;12.48;;;3.42;;
27706;SDS011;36332;51.384;0.040;2023-12-04T05:48:19;10.05;;;2.53;;
27706;SDS011;36332;51.384;0.040;2023-12-04T05:50:46;10.15;;;4.35;;
27706;SDS011;36332;51.384;0.040;2023-12-04T05:53:14;7.28;;;3.00;;
27706;SDS011;36332;51.384;0.040;2023-12-04T05:55:43;5.93;;;2.58;;
27706;SDS011;36332;51.384;0.040;2023-12-04T05:58:12;6.10;;;2.50;;
27706;SDS011;36332;51.384;0.040;2023-12-04T06:00:40;7.70;;;2.60;;
27706;SDS011;36332;51.384;0.040;2023-12-04T06:03:08;7.88;;;2.83;;
27706;SDS011;36332;51.384;0.040;2023-12-04T06:05:36;12.13;;;3.13;;
27706;SDS011;36332;51.384;0.040;2023-12-04T06:08:04;7.72;;;2.60;;
27706;SDS011;36332;51.384;0.040;2023-12-04T06:10:35;5.22;;;2.33;;
27706;SDS011;36332;51.384;0.040;2023-12-04T06:13:02;6.15;;;2.42;;
27706;SDS011;36332;51.384;0.040;2023-12-04T06:15:30;7.07;;;2.63;;
27706;SDS011;36332;51.384;0.040;2023-12-04T06:17:58;7.40;;;3.47;;
27706;SDS011;36332;51.384;0.040;2023-12-04T06:20:25;12.70;;;3.08;;
27706;SDS011;36332;51.384;0.040;2023-12-04T06:22:54;7.22;;;2.92;;
27706;SDS011;36332;51.384;0.040;2023-12-04T06:25:21;8.23;;;3.35;;
27706;SDS011;36332;51.384;0.040;2023-12-04T06:27:50;9.98;;;2.47;;
27706;SDS011;36332;51.384;0.040;2023-12-04T06:30:18;8.95;;;2.88;;
27706;SDS011;36332;51.384;0.040;2023-12-04T06:32:46;14.23;;;3.05;;
27706;SDS011;36332;51.384;0.040;2023-12-04T06:35:15;9.02;;;2.78;;
27706;SDS011;36332;51.384;0.040;2023-12-04T06:37:47;6.07;;;2.53;;
27706;SDS011;36332;51.384;0.040;2023-12-04T06:40:16;5.47;;;2.72;;
27706;SDS011;36332;51.384;0.040;2023-12-04T06:42:44;7.28;;;3.67;;
27706;SDS011;36332;51.384;0.040;2023-12-04T06:45:12;9.18;;;3.17;;
27706;SDS011;36332;51.384;0.040;2023-12-04T06:47:41;3.30;;;2.78;;
27706;SDS011;36332;51.384;0.040;2023-12-04T06:50:12;11.18;;;3.55;;
27706;SDS011;36332;51.384;0.040;2023-12-04T06:52:39;7.95;;;2.65;;
27706;SDS011;36332;51.384;0.040;2023-12-04T06:55:08;7.55;;;3.10;;
27706;SDS011;36332;51.384;0.040;2023-12-04T06:57:36;6.15;;;2.67;;
27706;SDS011;36332;51.384;0.040;2023-12-04T07:00:04;6.50;;;2.80;;
27706;SDS011;36332;51.384;0.040;2023-12-04T07:02:49;6.53;;;3.13;;
27706;SDS011;36332;51.384;0.040;2023-12-04T07:05:19;6.20;;;3.67;;
27706;SDS011;36332;51.384;0.040;2023-12-04T07:07:48;10.82;;;3.65;;
27706;SDS011;36332;51.384;0.040;2023-12-04T07:10:15;9.55;;;3.63;;
27706;SDS011;36332;51.384;0.040;2023-12-04T07:12:44;10.95;;;3.70;;
27706;SDS011;36332;51.384;0.040;2023-12-04T07:15:12;11.65;;;3.80;;
27706;SDS011;36332;51.384;0.040;2023-12-04T07:17:39;12.82;;;3.70;;
27706;SDS011;36332;51.384;0.040;2023-12-04T07:20:07;14.23;;;5.45;;
27706;SDS011;36332;51.384;0.040;2023-12-04T07:22:35;9.07;;;3.85;;
27706;SDS011;36332;51.384;0.040;2023-12-04T07:25:05;9.63;;;3.65;;
27706;SDS011;36332;51.384;0.040;2023-12-04T07:27:37;8.82;;;4.18;;
27706;SDS011;36332;51.384;0.040;2023-12-04T07:30:05;9.80;;;4.40;;
27706;SDS011;36332;51.384;0.040;2023-12-04T07:32:34;13.45;;;4.15;;
27706;SDS011;36332;51.384;0.040;2023-12-04T07:35:03;10.60;;;4.57;;
27706;SDS011;36332;51.384;0.040;2023-12-04T07:37:31;15.55;;;4.85;;
27706;SDS011;36332;51.384;0.040;2023-12-04T07:39:59;9.00;;;4.28;;
27706;SDS011;36332;51.384;0.040;2023-12-04T07:42:27;19.80;;;4.47;;
27706;SDS011;36332;51.384;0.040;2023-12-04T07:44:55;9.35;;;4.57;;
27706;SDS011;36332;51.384;0.040;2023-12-04T07:47:23;15.77;;;5.32;;
27706;SDS011;36332;51.384;0.040;2023-12-04T07:49:52;14.18;;;4.43;;
27706;SDS011;36332;51.384;0.040;2023-12-04T07:52:20;14.30;;;4.28;;
27706;SDS011;36332;51.384;0.040;2023-12-04T07:54:48;10.43;;;4.30;;
27706;SDS011;36332;51.384;0.040;2023-12-04T07:57:15;8.10;;;4.60;;
27706;SDS011;36332;51.384;0.040;2023-12-04T07:59:43;10.43;;;4.63;;
27706;SDS011;36332;51.384;0.040;2023-12-04T08:02:11;11.48;;;4.68;;
27706;SDS011;36332;51.384;0.040;2023-12-04T08:04:39;15.50;;;4.65;;
27706;SDS011;36332;51.384;0.040;2023-12-04T08:07:06;14.70;;;4.75;;
27706;SDS011;36332;51.384;0.040;2023-12-04T08:09:35;12.30;;;4.57;;
27706;SDS011;36332;51.384;0.040;2023-12-04T08:12:02;10.93;;;4.38;;
27706;SDS011;36332;51.384;0.040;2023-12-04T08:14:30;10.95;;;4.25;;
27706;SDS011;36332;51.384;0.040;2023-12-04T08:16:58;16.10;;;4.68;;
27706;SDS011;36332;51.384;0.040;2023-12-04T08:19:26;8.18;;;3.80;;
27706;SDS011;36332;51.384;0.040;2023-12-04T08:21:55;7.80;;;3.53;;
27706;SDS011;36332;51.384;0.040;2023-12-04T08:24:23;9.20;;;3.40;;
27706;SDS011;36332;51.384;0.040;2023-12-04T08:26:51;4.70;;;3.42;;
27706;SDS011;36332;51.384;0.040;2023-12-04T08:29:18;7.32;;;3.97;;
27706;SDS011;36332;51.384;0.040;2023-12-04T08:31:46;9.77;;;3.92;;
27706;SDS011;36332;51.384;0.040;2023-12-04T08:34:14;8.63;;;4.88;;
27706;SDS011;36332;51.384;0.040;2023-12-04T08:36:42;8.48;;;3.83;;
27706;SDS011;36332;51.384;0.040;2023-12-04T08:39:13;9.05;;;3.95;;
27706;SDS011;36332;51.384;0.040;2023-12-04T08:41:41;8.63;;;4.40;;
27706;SDS011;36332;51.384;0.040;2023-12-04T08:44:24;7.40;;;4.80;;
27706;SDS011;36332;51.384;0.040;2023-12-04T08:46:52;5.50;;;3.47;;
27706;SDS011;36332;51.384;0.040;2023-12-04T08:49:20;8.07;;;4.20;;
27706;SDS011;36332;51.384;0.040;2023-12-04T08:51:51;8.70;;;3.83;;
27706;SDS011;36332;51.384;0.040;2023-12-04T08:54:19;8.85;;;3.78;;
27706;SDS011;36332;51.384;0.040;2023-12-04T08:56:48;6.50;;;3.90;;
27706;SDS011;36332;51.384;0.040;2023-12-04T08:59:15;11.20;;;3.83;;
27706;SDS011;36332;51.384;0.040;2023-12-04T09:01:44;11.50;;;4.38;;
27706;SDS011;36332;51.384;0.040;2023-12-04T09:04:11;7.13;;;3.70;;
27706;SDS011;36332;51.384;0.040;2023-12-04T09:06:39;6.32;;;4.22;;
27706;SDS011;36332;51.384;0.040;2023-12-04T09:09:27;8.77;;;3.45;;
27706;SDS011;36332;51.384;0.040;2023-12-04T09:11:55;7.78;;;4.20;;
27706;SDS011;36332;51.384;0.040;2023-12-04T09:14:24;7.78;;;3.80;;
27706;SDS011;36332;51.384;0.040;2023-12-04T09:16:51;10.18;;;3.88;;
27706;SDS011;36332;51.384;0.040;2023-12-04T09:19:20;6.80;;;4.22;;
27706;SDS011;36332;51.384;0.040;2023-12-04T09:21:48;7.03;;;4.55;;
27706;SDS011;36332;51.384;0.040;2023-12-04T09:24:29;7.18;;;3.90;;
27706;SDS011;36332;51.384;0.040;2023-12-04T09:27:00;10.07;;;4.75;;
27706;SDS011;36332;51.384;0.040;2023-12-04T09:29:28;9.52;;;3.67;;
27706;SDS011;36332;51.384;0.040;2023-12-04T09:31:55;10.32;;;4.03;;
27706;SDS011;36332;51.384;0.040;2023-12-04T09:34:23;7.63;;;3.97;;
27706;SDS011;36332;51.384;0.040;2023-12-04T09:36:51;9.95;;;3.83;;
27706;SDS011;36332;51.384;0.040;2023-12-04T09:39:21;10.32;;;4.63;;
27706;SDS011;36332;51.384;0.040;2023-12-04T09:41:50;9.98;;;4.07;;
27706;SDS011;36332;51.384;0.040;2023-12-04T09:44:18;17.33;;;5.15;;
27706;SDS011;36332;51.384;0.040;2023-12-04T09:46:47;9.48;;;4.40;;
27706;SDS011;36332;51.384;0.040;2023-12-04T09:49:16;9.98;;;4.35;;
27706;SDS011;36332;51.384;0.040;2023-12-04T09:51:45;9.40;;;3.90;;
27706;SDS011;36332;51.384;0.040;2023-12-04T09:54:14;8.13;;;3.65;;
27706;SDS011;36332;51.384;0.040;2023-12-04T09:56:45;10.70;;;4.00;;
27706;SDS011;36332;51.384;0.040;2023-12-04T09:59:13;11.52;;;4.85;;
27706;SDS011;36332;51.384;0.040;2023-12-04T10:01:43;13.32;;;4.88;;
27706;SDS011;36332;51.384;0.040;2023-12-04T10:04:14;9.60;;;4.05;;
27706;SDS011;36332;51.384;0.040;2023-12-04T10:06:42;12.88;;;4.82;;
27706;SDS011;36332;51.384;0.040;2023-12-04T10:09:10;10.57;;;4.43;;
27706;SDS011;36332;51.384;0.040;2023-12-04T10:11:44;9.57;;;4.03;;
27706;SDS011;36332;51.384;0.040;2023-12-04T10:14:14;12.98;;;4.47;;
27706;SDS011;36332;51.384;0.040;2023-12-04T10:16:46;8.20;;;4.47;;
27706;SDS011;36332;51.384;0.040;2023-12-04T10:21:46;9.52;;;3.47;;
27706;SDS011;36332;51.384;0.040;2023-12-04T10:27:08;6.72;;;3.25;;
27706;SDS011;36332;51.384;0.040;2023-12-04T10:29:40;6.13;;;4.05;;
27706;SDS011;36332;51.384;0.040;2023-12-04T10:34:50;11.77;;;4.38;;
27706;SDS011;36332;51.384;0.040;2023-12-04T10:37:18;8.98;;;3.97;;
27706;SDS011;36332;51.384;0.040;2023-12-04T10:39:50;12.43;;;5.40;;
27706;SDS011;36332;51.384;0.040;2023-12-04T10:42:28;8.15;;;4.20;;
27706;SDS011;36332;51.384;0.040;2023-12-04T10:44:58;8.55;;;4.10;;
27706;SDS011;36332;51.384;0.040;2023-12-04T10:47:28;14.75;;;4.38;;
27706;SDS011;36332;51.384;0.040;2023-12-04T10:50:01;7.75;;;4.43;;
27706;SDS011;36332;51.384;0.040;2023-12-04T10:52:30;13.25;;;4.20;;
27706;SDS011;36332;51.384;0.040;2023-12-04T10:54:58;11.40;;;4.65;;
27706;SDS011;36332;51.384;0.040;2023-12-04T10:57:31;15.23;;;4.70;;
27706;SDS011;36332;51.384;0.040;2023-12-04T11:00:09;12.05;;;5.07;;
27706;SDS011;36332;51.384;0.040;2023-12-04T11:02:39;13.82;;;3.78;;
27706;SDS011;36332;51.384;0.040;2023-12-04T11:07:47;14.95;;;7.45;;
27706;SDS011;36332;51.384;0.040;2023-12-04T11:10:57;12.00;;;5.03;;
27706;SDS011;36332;51.384;0.040;2023-12-04T11:13:30;10.05;;;4.32;;
27706;SDS011;36332;51.384;0.040;2023-12-04T11:16:04;13.05;;;4.95;;
27706;SDS011;36332;51.384;0.040;2023-12-04T11:18:36;9.40;;;4.00;;
27706;SDS011;36332;51.384;0.040;2023-12-04T11:21:09;13.60;;;6.03;;
27706;SDS011;36332;51.384;0.040;2023-12-04T11:23:38;15.43;;;5.47;;
27706;SDS011;36332;51.384;0.040;2023-12-04T11:26:07;13.27;;;5.32;;
27706;SDS011;36332;51.384;0.040;2023-12-04T11:28:36;10.63;;;3.80;;
27706;SDS011;36332;51.384;0.040;2023-12-04T11:31:06;11.70;;;4.60;;
27706;SDS011;36332;51.384;0.040;2023-12-04T11:33:35;17.88;;;5.13;;
27706;SDS011;36332;51.384;0.040;2023-12-04T11:36:11;11.60;;;4.32;;
27706;SDS011;36332;51.384;0.040;2023-12-04T11:38:44;15.57;;;5.65;;
27706;SDS011;36332;51.384;0.040;2023-12-04T11:41:17;14.93;;;4.50;;
27706;SDS011;36332;51.384;0.040;2023-12-04T11:43:54;13.10;;;4.50;;
27706;SDS011;36332;51.384;0.040;2023-12-04T11:46:24;12.35;;;3.85;;
27706;SDS011;36332;51.384;0.040;2023-12-04T11:48:57;11.82;;;4.22;;
27706;SDS011;36332;51.384;0.040;2023-12-04T11:51:45;11.30;;;3.40;;
27706;SDS011;36332;51.384;0.040;2023-12-04T11:54:19;12.55;;;4.05;;
27706;SDS011;36332;51.384;0.040;2023-12-04T11:59:38;9.75;;;4.10;;
27706;SDS011;36332;51.384;0.040;2023-12-04T12:02:08;14.38;;;4.70;;
27706;SDS011;36332;51.384;0.040;2023-12-04T12:04:37;12.25;;;4.40;;
27706;SDS011;36332;51.384;0.040;2023-12-04T12:07:06;13.00;;;4.35;;
27706;SDS011;36332;51.384;0.040;2023-12-04T12:09:34;14.00;;;4.53;;
27706;SDS011;36332;51.384;0.040;2023-12-04T12:12:02;10.02;;;4.38;;
27706;SDS011;36332;51.384;0.040;2023-12-04T12:14:31;13.98;;;4.95;;
27706;SDS011;36332;51.384;0.040;2023-12-04T12:16:59;15.10;;;6.53;;
27706;SDS011;36332;51.384;0.040;2023-12-04T12:19:28;10.05;;;4.65;;
27706;SDS011;36332;51.384;0.040;2023-12-04T12:21:56;11.60;;;4.82;;
27706;SDS011;36332;51.384;0.040;2023-12-04T12:24:26;10.18;;;4.63;;
27706;SDS011;36332;51.384;0.040;2023-12-04T12:26:55;11.40;;;4.75;;
27706;SDS011;36332;51.384;0.040;2023-12-04T12:29:23;11.32;;;6.07;;
27706;SDS011;36332;51.384;0.040;2023-12-04T12:31:51;9.30;;;4.95;;
27706;SDS011;36332;51.384;0.040;2023-12-04T12:34:19;14.55;;;5.53;;
27706;SDS011;36332;51.384;0.040;2023-12-04T12:36:47;13.68;;;4.95;;
27706;SDS011;36332;51.384;0.040;2023-12-04T12:39:15;15.38;;;4.50;;
27706;SDS011;36332;51.384;0.040;2023-12-04T12:41:47;11.80;;;4.45;;
27706;SDS011;36332;51.384;0.040;2023-12-04T12:44:16;13.05;;;4.85;;
27706;SDS011;36332;51.384;0.040;2023-12-04T12:46:48;11.40;;;4.20;;
27706;SDS011;36332;51.384;0.040;2023-12-04T12:49:20;9.07;;;5.07;;
27706;SDS011;36332;51.384;0.040;2023-12-04T12:52:02;15.07;;;5.47;;
27706;SDS011;36332;51.384;0.040;2023-12-04T12:54:39;17.05;;;5.88;;
27706;SDS011;36332;51.384;0.040;2023-12-04T12:57:08;12.27;;;4.75;;
27706;SDS011;36332;51.384;0.040;2023-12-04T12:59:40;11.55;;;4.28;;
27706;SDS011;36332;51.384;0.040;2023-12-04T13:02:08;12.80;;;4.68;;
27706;SDS011;36332;51.384;0.040;2023-12-04T13:04:38;11.60;;;4.72;;
27706;SDS011;36332;51.384;0.040;2023-12-04T13:07:09;12.18;;;4.68;;
27706;SDS011;36332;51.384;0.040;2023-12-04T13:09:38;13.85;;;4.15;;
27706;SDS011;36332;51.384;0.040;2023-12-04T13:12:06;11.82;;;4.63;;
27706;SDS011;36332;51.384;0.040;2023-12-04T13:14:35;14.27;;;3.97;;
27706;SDS011;36332;51.384;0.040;2023-12-04T13:17:04;10.82;;;4.43;;
27706;SDS011;36332;51.384;0.040;2023-12-04T13:19:33;16.90;;;4.35;;
27706;SDS011;36332;51.384;0.040;2023-12-04T13:22:03;15.63;;;5.18;;
27706;SDS011;36332;51.384;0.040;2023-12-04T13:24:32;6.97;;;3.95;;
27706;SDS011;36332;51.384;0.040;2023-12-04T13:27:00;10.27;;;3.83;;
27706;SDS011;36332;51.384;0.040;2023-12-04T13:29:27;5.95;;;3.17;;
27706;SDS011;36332;51.384;0.040;2023-12-04T13:31:55;10.82;;;3.78;;
27706;SDS011;36332;51.384;0.040;2023-12-04T13:34:22;6.38;;;3.78;;
27706;SDS011;36332;51.384;0.040;2023-12-04T13:36:50;9.43;;;3.05;;
27706;SDS011;36332;51.384;0.040;2023-12-04T13:39:18;9.45;;;4.53;;
27706;SDS011;36332;51.384;0.040;2023-12-04T13:41:54;8.18;;;3.40;;
27706;SDS011;36332;51.384;0.040;2023-12-04T13:44:40;8.00;;;3.37;;
27706;SDS011;36332;51.384;0.040;2023-12-04T13:47:08;7.18;;;3.70;;
27706;SDS011;36332;51.384;0.040;2023-12-04T13:49:36;12.93;;;4.93;;
27706;SDS011;36332;51.384;0.040;2023-12-04T13:52:04;7.70;;;3.10;;
27706;SDS011;36332;51.384;0.040;2023-12-04T13:54:35;8.35;;;3.22;;
27706;SDS011;36332;51.384;0.040;2023-12-04T13:57:13;9.65;;;3.85;;
27706;SDS011;36332;51.384;0.040;2023-12-04T14:00:00;15.23;;;4.85;;
27706;SDS011;36332;51.384;0.040;2023-12-04T14:02:30;15.30;;;4.47;;
27706;SDS011;36332;51.384;0.040;2023-12-04T14:04:59;12.15;;;4.30;;
27706;SDS011;36332;51.384;0.040;2023-12-04T14:07:28;15.23;;;4.60;;
27706;SDS011;36332;51.384;0.040;2023-12-04T14:09:57;15.10;;;5.20;;
27706;SDS011;36332;51.384;0.040;2023-12-04T14:12:25;12.95;;;5.20;;
27706;SDS011;36332;51.384;0.040;2023-12-04T14:14:53;12.88;;;5.20;;
27706;SDS011;36332;51.384;0.040;2023-12-04T14:17:24;10.57;;;5.00;;
27706;SDS011;36332;51.384;0.040;2023-12-04T14:19:52;13.70;;;5.75;;
27706;SDS011;36332;51.384;0.040;2023-12-04T14:22:19;11.38;;;5.72;;
27706;SDS011;36332;51.384;0.040;2023-12-04T14:24:47;13.35;;;6.25;;
27706;SDS011;36332;51.384;0.040;2023-12-04T14:27:15;12.82;;;6.45;;
27706;SDS011;36332;51.384;0.040;2023-12-04T14:29:43;14.05;;;7.22;;
27706;SDS011;36332;51.384;0.040;2023-12-04T14:32:11;17.30;;;8.38;;
27706;SDS011;36332;51.384;0.040;2023-12-04T14:34:40;13.77;;;8.73;;
27706;SDS011;36332;51.384;0.040;2023-12-04T14:37:08;22.80;;;8.40;;
27706;SDS011;36332;51.384;0.040;2023-12-04T14:39:35;21.30;;;9.45;;
27706;SDS011;36332;51.384;0.040;2023-12-04T14:42:03;15.45;;;9.45;;
27706;SDS011;36332;51.384;0.040;2023-12-04T14:44:30;18.83;;;9.63;;
27706;SDS011;36332;51.384;0.040;2023-12-04T14:46:59;12.88;;;6.93;;
27706;SDS011;36332;51.384;0.040;2023-12-04T14:49:27;12.80;;;7.40;;
27706;SDS011;36332;51.384;0.040;2023-12-04T14:51:54;16.60;;;7.75;;
27706;SDS011;36332;51.384;0.040;2023-12-04T14:54:23;22.42;;;6.90;;
27706;SDS011;36332;51.384;0.040;2023-12-04T14:57:04;14.18;;;6.22;;
27706;SDS011;36332;51.384;0.040;2023-12-04T15:02:37;10.98;;;5.47;;
27706;SDS011;36332;51.384;0.040;2023-12-04T15:05:23;14.75;;;4.97;;
27706;SDS011;36332;51.384;0.040;2023-12-04T15:08:14;10.45;;;5.03;;